sensor_id;sensor_type;location;lat;lon;timestamp;pressure;altitude;pressure_sealevel;temperature;humidity
34658;BME280;20865;43.312;27.152;2023-04-25T00:02:07;99760.83;;;19.82;44.71
34658;BME280;20865;43.312;27.152;2023-04-25T00:04:34;99755.56;;;19.92;44.44
34658;BME280;20865;43.312;27.152;2023-04-25T00:07:02;99745.78;;;19.84;44.79
34658;BME280;20865;43.312;27.152;2023-04-25T00:09:30;99746.73;;;19.47;45.86
34658;BME280;20865;43.312;27.152;2023-04-25T00:11:57;99747.95;;;19.43;45.83
34658;BME280;20865;43.312;27.152;2023-04-25T00:14:24;99749.27;;;19.38;46.03
34658;BME280;20865;43.312;27.152;2023-04-25T00:16:51;99741.55;;;19.44;45.91
34658;BME280;20865;43.312;27.152;2023-04-25T00:19:17;99742.58;;;19.55;45.62
34658;BME280;20865;43.312;27.152;2023-04-25T00:21:44;99741.79;;;19.65;45.36
34658;BME280;20865;43.312;27.152;2023-04-25T00:24:12;99741.06;;;19.69;45.23
34658;BME280;20865;43.312;27.152;2023-04-25T00:26:39;99739.38;;;19.73;45.11
34658;BME280;20865;43.312;27.152;2023-04-25T00:29:05;99741.33;;;19.71;45.08
34658;BME280;20865;43.312;27.152;2023-04-25T00:31:32;99744.77;;;19.68;45.09
34658;BME280;20865;43.312;27.152;2023-04-25T00:34:00;99735.19;;;19.75;45.01
34658;BME280;20865;43.312;27.152;2023-04-25T00:36:26;99731.58;;;19.63;45.30
34658;BME280;20865;43.312;27.152;2023-04-25T00:38:53;99735.64;;;19.63;45.29
34658;BME280;20865;43.312;27.152;2023-04-25T00:41:20;99731.70;;;19.49;45.73
34658;BME280;20865;43.312;27.152;2023-04-25T00:43:47;99723.62;;;19.55;45.66
34658;BME280;20865;43.312;27.152;2023-04-25T00:46:15;99725.00;;;19.60;45.41
34658;BME280;20865;43.312;27.152;2023-04-25T00:48:42;99723.98;;;19.56;45.59
34658;BME280;20865;43.312;27.152;2023-04-25T00:51:09;99720.77;;;19.50;45.65
34658;BME280;20865;43.312;27.152;2023-04-25T00:53:37;99718.56;;;19.50;45.63
34658;BME280;20865;43.312;27.152;2023-04-25T00:56:04;99712.78;;;19.55;45.57
34658;BME280;20865;43.312;27.152;2023-04-25T00:58:31;99716.34;;;19.55;45.55
34658;BME280;20865;43.312;27.152;2023-04-25T01:00:58;99722.31;;;19.36;46.19
34658;BME280;20865;43.312;27.152;2023-04-25T01:03:26;99719.52;;;19.43;45.98
34658;BME280;20865;43.312;27.152;2023-04-25T01:05:54;99710.94;;;19.25;46.34
34658;BME280;20865;43.312;27.152;2023-04-25T01:08:21;99710.53;;;19.43;45.85
34658;BME280;20865;43.312;27.152;2023-04-25T01:10:49;99711.03;;;19.42;45.83
34658;BME280;20865;43.312;27.152;2023-04-25T01:13:16;99709.05;;;19.44;45.87
34658;BME280;20865;43.312;27.152;2023-04-25T01:15:43;99698.58;;;19.45;45.72
34658;BME280;20865;43.312;27.152;2023-04-25T01:18:10;99695.77;;;19.47;45.59
34658;BME280;20865;43.312;27.152;2023-04-25T01:20:37;99698.08;;;19.40;45.63
34658;BME280;20865;43.312;27.152;2023-04-25T01:23:04;99693.42;;;19.48;45.53
34658;BME280;20865;43.312;27.152;2023-04-25T01:25:30;99692.56;;;19.47;45.41
34658;BME280;20865;43.312;27.152;2023-04-25T01:27:58;99695.00;;;19.45;45.45
34658;BME280;20865;43.312;27.152;2023-04-25T01:30:29;99695.96;;;19.38;45.58
34658;BME280;20865;43.312;27.152;2023-04-25T01:32:56;99692.35;;;19.26;45.56
34658;BME280;20865;43.312;27.152;2023-04-25T01:35:23;99694.93;;;19.28;45.76
34658;BME280;20865;43.312;27.152;2023-04-25T01:37:50;99684.00;;;19.30;45.66
34658;BME280;20865;43.312;27.152;2023-04-25T01:40:18;99682.56;;;19.13;45.87
34658;BME280;20865;43.312;27.152;2023-04-25T01:42:46;99673.13;;;19.18;45.68
34658;BME280;20865;43.312;27.152;2023-04-25T01:45:13;99678.68;;;19.22;45.63
34658;BME280;20865;43.312;27.152;2023-04-25T01:47:40;99673.98;;;19.19;45.68
34658;BME280;20865;43.312;27.152;2023-04-25T01:50:09;99660.31;;;19.15;45.84
34658;BME280;20865;43.312;27.152;2023-04-25T01:52:36;99651.89;;;19.07;46.01
34658;BME280;20865;43.312;27.152;2023-04-25T01:55:04;99646.42;;;18.95;46.29
34658;BME280;20865;43.312;27.152;2023-04-25T01:57:30;99638.34;;;19.01;46.21
34658;BME280;20865;43.312;27.152;2023-04-25T01:59:58;99630.05;;;18.91;46.26
34658;BME280;20865;43.312;27.152;2023-04-25T02:02:25;99638.45;;;18.99;46.23
34658;BME280;20865;43.312;27.152;2023-04-25T02:04:52;99640.92;;;19.02;46.23
34658;BME280;20865;43.312;27.152;2023-04-25T02:07:20;99627.70;;;18.92;46.20
34658;BME280;20865;43.312;27.152;2023-04-25T02:09:47;99633.56;;;18.68;46.72
34658;BME280;20865;43.312;27.152;2023-04-25T02:12:14;99628.02;;;18.76;46.34
34658;BME280;20865;43.312;27.152;2023-04-25T02:14:41;99635.09;;;18.72;46.38
34658;BME280;20865;43.312;27.152;2023-04-25T02:17:07;99643.70;;;18.71;46.40
34658;BME280;20865;43.312;27.152;2023-04-25T02:19:34;99639.42;;;18.74;46.43
34658;BME280;20865;43.312;27.152;2023-04-25T02:22:01;99627.17;;;18.69;46.54
34658;BME280;20865;43.312;27.152;2023-04-25T02:24:28;99620.80;;;18.70;46.56
34658;BME280;20865;43.312;27.152;2023-04-25T02:26:55;99623.95;;;18.64;46.73
34658;BME280;20865;43.312;27.152;2023-04-25T02:29:21;99620.03;;;18.62;46.75
34658;BME280;20865;43.312;27.152;2023-04-25T02:31:48;99623.70;;;18.43;47.34
34658;BME280;20865;43.312;27.152;2023-04-25T02:34:15;99620.72;;;18.40;47.24
34658;BME280;20865;43.312;27.152;2023-04-25T02:36:42;99618.92;;;18.46;47.11
34658;BME280;20865;43.312;27.152;2023-04-25T02:39:09;99612.50;;;18.60;46.86
34658;BME280;20865;43.312;27.152;2023-04-25T02:41:36;99612.91;;;18.67;46.75
34658;BME280;20865;43.312;27.152;2023-04-25T02:44:03;99608.63;;;18.70;46.71
34658;BME280;20865;43.312;27.152;2023-04-25T02:46:30;99614.70;;;18.73;46.68
34658;BME280;20865;43.312;27.152;2023-04-25T02:48:56;99617.42;;;18.79;46.46
34658;BME280;20865;43.312;27.152;2023-04-25T02:51:23;99605.02;;;18.82;46.36
34658;BME280;20865;43.312;27.152;2023-04-25T02:53:50;99598.03;;;18.85;46.11
34658;BME280;20865;43.312;27.152;2023-04-25T02:56:17;99594.42;;;18.73;46.11
34658;BME280;20865;43.312;27.152;2023-04-25T02:58:44;99586.95;;;18.64;46.37
34658;BME280;20865;43.312;27.152;2023-04-25T03:01:11;99594.43;;;18.61;46.52
34658;BME280;20865;43.312;27.152;2023-04-25T03:03:37;99585.58;;;18.59;46.49
34658;BME280;20865;43.312;27.152;2023-04-25T03:06:04;99590.19;;;18.51;46.61
34658;BME280;20865;43.312;27.152;2023-04-25T03:08:31;99603.69;;;18.45;46.85
34658;BME280;20865;43.312;27.152;2023-04-25T03:11:00;99598.06;;;18.48;46.75
34658;BME280;20865;43.312;27.152;2023-04-25T03:13:27;99583.10;;;18.55;46.48
34658;BME280;20865;43.312;27.152;2023-04-25T03:15:55;99580.54;;;18.60;46.47
34658;BME280;20865;43.312;27.152;2023-04-25T03:18:22;99580.54;;;18.60;46.46
34658;BME280;20865;43.312;27.152;2023-04-25T03:20:49;99583.10;;;18.55;46.57
34658;BME280;20865;43.312;27.152;2023-04-25T03:23:15;99593.70;;;18.59;46.52
34658;BME280;20865;43.312;27.152;2023-04-25T03:25:42;99590.37;;;18.61;46.39
34658;BME280;20865;43.312;27.152;2023-04-25T03:28:09;99586.67;;;18.62;46.30
34658;BME280;20865;43.312;27.152;2023-04-25T03:30:36;99580.31;;;18.63;46.26
34658;BME280;20865;43.312;27.152;2023-04-25T03:33:03;99589.55;;;18.66;46.37
34658;BME280;20865;43.312;27.152;2023-04-25T03:35:30;99588.30;;;18.64;46.40
34658;BME280;20865;43.312;27.152;2023-04-25T03:37:57;99590.50;;;18.59;46.47
34658;BME280;20865;43.312;27.152;2023-04-25T03:40:24;99591.23;;;18.61;46.37
34658;BME280;20865;43.312;27.152;2023-04-25T03:42:51;99586.09;;;18.64;46.40
34658;BME280;20865;43.312;27.152;2023-04-25T03:45:18;99594.43;;;18.61;46.38
34658;BME280;20865;43.312;27.152;2023-04-25T03:47:45;99593.31;;;18.39;46.93
34658;BME280;20865;43.312;27.152;2023-04-25T03:50:12;99579.54;;;18.55;46.57
34658;BME280;20865;43.312;27.152;2023-04-25T03:52:40;99580.98;;;18.53;46.73
34658;BME280;20865;43.312;27.152;2023-04-25T03:55:08;99579.14;;;18.54;46.59
34658;BME280;20865;43.312;27.152;2023-04-25T03:57:36;99580.27;;;18.57;46.66
34658;BME280;20865;43.312;27.152;2023-04-25T04:00:03;99583.61;;;18.61;46.68
34658;BME280;20865;43.312;27.152;2023-04-25T04:02:30;99586.45;;;18.65;46.69
34658;BME280;20865;43.312;27.152;2023-04-25T04:04:58;99590.31;;;18.49;47.22
34658;BME280;20865;43.312;27.152;2023-04-25T04:07:25;99585.58;;;18.59;46.95
34658;BME280;20865;43.312;27.152;2023-04-25T04:09:52;99587.38;;;18.52;47.27
34658;BME280;20865;43.312;27.152;2023-04-25T04:12:19;99588.11;;;18.30;47.91
34658;BME280;20865;43.312;27.152;2023-04-25T04:14:45;99594.17;;;18.03;48.63
34658;BME280;20865;43.312;27.152;2023-04-25T04:17:12;99588.79;;;18.27;48.30
34658;BME280;20865;43.312;27.152;2023-04-25T04:19:39;99581.80;;;18.24;48.39
34658;BME280;20865;43.312;27.152;2023-04-25T04:22:06;99585.55;;;18.35;48.16
34658;BME280;20865;43.312;27.152;2023-04-25T04:24:33;99583.44;;;18.32;47.98
34658;BME280;20865;43.312;27.152;2023-04-25T04:26:59;99578.89;;;18.33;48.19
34658;BME280;20865;43.312;27.152;2023-04-25T04:29:26;99579.08;;;18.43;48.17
34658;BME280;20865;43.312;27.152;2023-04-25T04:31:53;99587.69;;;18.42;48.27
34658;BME280;20865;43.312;27.152;2023-04-25T04:34:20;99583.01;;;18.44;48.21
34658;BME280;20865;43.312;27.152;2023-04-25T04:36:47;99575.07;;;18.48;48.16
34658;BME280;20865;43.312;27.152;2023-04-25T04:39:14;99577.70;;;18.55;47.87
34658;BME280;20865;43.312;27.152;2023-04-25T04:41:41;99579.10;;;18.67;47.85
34658;BME280;20865;43.312;27.152;2023-04-25T04:44:08;99577.20;;;18.74;47.83
34658;BME280;20865;43.312;27.152;2023-04-25T04:46:36;99579.17;;;18.72;47.99
34658;BME280;20865;43.312;27.152;2023-04-25T04:49:04;99578.19;;;18.55;48.54
34658;BME280;20865;43.312;27.152;2023-04-25T04:51:31;99578.02;;;18.51;48.68
34658;BME280;20865;43.312;27.152;2023-04-25T04:53:58;99574.28;;;18.65;48.67
34658;BME280;20865;43.312;27.152;2023-04-25T04:56:27;99575.67;;;18.70;48.43
34658;BME280;20865;43.312;27.152;2023-04-25T04:58:53;99575.66;;;18.83;48.22
34658;BME280;20865;43.312;27.152;2023-04-25T05:01:20;99575.19;;;18.71;48.58
34658;BME280;20865;43.312;27.152;2023-04-25T05:03:47;99566.28;;;18.82;48.59
34658;BME280;20865;43.312;27.152;2023-04-25T05:06:14;99558.44;;;18.84;48.60
34658;BME280;20865;43.312;27.152;2023-04-25T05:08:41;99566.00;;;18.97;48.67
34658;BME280;20865;43.312;27.152;2023-04-25T05:11:08;99567.48;;;19.07;48.36
34658;BME280;20865;43.312;27.152;2023-04-25T05:13:35;99564.70;;;19.14;48.03
34658;BME280;20865;43.312;27.152;2023-04-25T05:16:02;99557.05;;;19.08;48.06
34658;BME280;20865;43.312;27.152;2023-04-25T05:18:30;99558.17;;;19.17;48.07
34658;BME280;20865;43.312;27.152;2023-04-25T05:20:57;99561.80;;;19.28;47.86
34658;BME280;20865;43.312;27.152;2023-04-25T05:23:24;99557.58;;;19.19;47.99
34658;BME280;20865;43.312;27.152;2023-04-25T05:25:53;99559.71;;;19.32;47.48
34658;BME280;20865;43.312;27.152;2023-04-25T05:28:20;99552.70;;;19.35;46.85
34658;BME280;20865;43.312;27.152;2023-04-25T05:30:46;99546.68;;;19.43;46.68
34658;BME280;20865;43.312;27.152;2023-04-25T05:33:13;99551.86;;;19.46;46.37
34658;BME280;20865;43.312;27.152;2023-04-25T05:35:41;99549.14;;;19.51;46.24
34658;BME280;20865;43.312;27.152;2023-04-25T05:38:08;99553.96;;;19.54;46.22
34658;BME280;20865;43.312;27.152;2023-04-25T05:40:35;99546.33;;;19.53;46.17
34658;BME280;20865;43.312;27.152;2023-04-25T05:43:03;99548.42;;;19.61;46.17
34658;BME280;20865;43.312;27.152;2023-04-25T05:45:30;99546.05;;;19.45;46.19
34658;BME280;20865;43.312;27.152;2023-04-25T05:47:57;99545.45;;;19.47;46.22
34658;BME280;20865;43.312;27.152;2023-04-25T05:50:24;99548.80;;;19.56;46.16
34658;BME280;20865;43.312;27.152;2023-04-25T05:52:51;99542.13;;;19.55;46.49
34658;BME280;20865;43.312;27.152;2023-04-25T05:55:18;99530.68;;;19.51;46.28
34658;BME280;20865;43.312;27.152;2023-04-25T05:57:45;99528.95;;;19.56;46.29
34658;BME280;20865;43.312;27.152;2023-04-25T06:00:13;99527.41;;;19.81;46.10
34658;BME280;20865;43.312;27.152;2023-04-25T06:02:41;99528.14;;;20.06;45.95
34658;BME280;20865;43.312;27.152;2023-04-25T06:05:08;99533.36;;;20.58;44.60
34658;BME280;20865;43.312;27.152;2023-04-25T06:07:35;99519.95;;;21.04;44.37
34658;BME280;20865;43.312;27.152;2023-04-25T06:10:02;99518.10;;;21.25;42.65
34658;BME280;20865;43.312;27.152;2023-04-25T06:12:31;99521.52;;;21.54;41.81
34658;BME280;20865;43.312;27.152;2023-04-25T06:14:58;99533.66;;;22.11;40.87
34658;BME280;20865;43.312;27.152;2023-04-25T06:17:25;99527.66;;;22.32;40.69
34658;BME280;20865;43.312;27.152;2023-04-25T06:19:52;99522.69;;;22.57;39.66
34658;BME280;20865;43.312;27.152;2023-04-25T06:22:19;99523.02;;;22.93;39.46
34658;BME280;20865;43.312;27.152;2023-04-25T06:24:46;99531.77;;;23.39;38.67
34658;BME280;20865;43.312;27.152;2023-04-25T06:27:13;99526.34;;;23.72;38.65
34658;BME280;20865;43.312;27.152;2023-04-25T06:29:39;99530.81;;;24.01;37.99
34658;BME280;20865;43.312;27.152;2023-04-25T06:32:06;99525.97;;;24.22;38.03
34658;BME280;20865;43.312;27.152;2023-04-25T06:34:33;99524.81;;;24.53;37.09
34658;BME280;20865;43.312;27.152;2023-04-25T06:37:00;99517.66;;;24.69;36.53
34658;BME280;20865;43.312;27.152;2023-04-25T06:39:27;99524.76;;;24.62;35.31
34658;BME280;20865;43.312;27.152;2023-04-25T06:41:54;99525.53;;;24.55;35.92
34658;BME280;20865;43.312;27.152;2023-04-25T06:44:21;99521.50;;;24.45;36.10
34658;BME280;20865;43.312;27.152;2023-04-25T06:46:49;99531.89;;;24.59;36.32
34658;BME280;20865;43.312;27.152;2023-04-25T06:49:16;99529.50;;;24.78;35.56
34658;BME280;20865;43.312;27.152;2023-04-25T06:51:43;99523.77;;;24.67;35.26
34658;BME280;20865;43.312;27.152;2023-04-25T06:54:10;99521.56;;;24.39;36.31
34658;BME280;20865;43.312;27.152;2023-04-25T06:56:37;99518.63;;;24.23;36.39
34658;BME280;20865;43.312;27.152;2023-04-25T06:59:04;99520.93;;;24.14;36.34
34658;BME280;20865;43.312;27.152;2023-04-25T07:01:30;99513.55;;;23.96;36.82
34658;BME280;20865;43.312;27.152;2023-04-25T07:03:57;99513.55;;;23.96;37.21
34658;BME280;20865;43.312;27.152;2023-04-25T07:06:24;99515.05;;;24.22;37.30
34658;BME280;20865;43.312;27.152;2023-04-25T07:08:52;99505.55;;;24.27;37.66
34658;BME280;20865;43.312;27.152;2023-04-25T07:11:19;99501.75;;;24.51;37.24
34658;BME280;20865;43.312;27.152;2023-04-25T07:13:46;99501.10;;;24.89;37.18
34658;BME280;20865;43.312;27.152;2023-04-25T07:16:12;99502.05;;;25.15;35.53
34658;BME280;20865;43.312;27.152;2023-04-25T07:18:39;99503.98;;;25.23;35.86
34658;BME280;20865;43.312;27.152;2023-04-25T07:21:06;99502.89;;;25.38;35.20
34658;BME280;20865;43.312;27.152;2023-04-25T07:23:33;99501.40;;;25.43;34.84
34658;BME280;20865;43.312;27.152;2023-04-25T07:26:00;99496.45;;;25.43;35.38
34658;BME280;20865;43.312;27.152;2023-04-25T07:28:27;99489.27;;;25.42;34.54
34658;BME280;20865;43.312;27.152;2023-04-25T07:30:53;99489.93;;;25.40;35.88
34658;BME280;20865;43.312;27.152;2023-04-25T07:33:20;99487.08;;;25.46;34.75
34658;BME280;20865;43.312;27.152;2023-04-25T07:35:47;99495.46;;;25.52;33.80
34658;BME280;20865;43.312;27.152;2023-04-25T07:38:14;99489.44;;;25.45;34.23
34658;BME280;20865;43.312;27.152;2023-04-25T07:40:41;99492.69;;;25.44;36.41
34658;BME280;20865;43.312;27.152;2023-04-25T07:43:08;99488.38;;;25.63;36.15
34658;BME280;20865;43.312;27.152;2023-04-25T07:45:36;99485.31;;;25.66;34.83
34658;BME280;20865;43.312;27.152;2023-04-25T07:48:03;99483.79;;;25.72;35.12
34658;BME280;20865;43.312;27.152;2023-04-25T07:50:30;99480.15;;;25.89;34.86
34658;BME280;20865;43.312;27.152;2023-04-25T07:52:57;99482.67;;;25.83;34.34
34658;BME280;20865;43.312;27.152;2023-04-25T07:55:24;99482.20;;;25.87;34.11
34658;BME280;20865;43.312;27.152;2023-04-25T07:57:51;99484.97;;;25.96;35.11
34658;BME280;20865;43.312;27.152;2023-04-25T08:00:18;99478.86;;;26.06;34.17
34658;BME280;20865;43.312;27.152;2023-04-25T08:02:45;99474.31;;;26.27;35.23
34658;BME280;20865;43.312;27.152;2023-04-25T08:05:12;99481.39;;;26.50;34.23
34658;BME280;20865;43.312;27.152;2023-04-25T08:07:40;99474.91;;;26.59;33.71
34658;BME280;20865;43.312;27.152;2023-04-25T08:10:07;99473.73;;;26.62;34.81
34658;BME280;20865;43.312;27.152;2023-04-25T08:12:34;99471.99;;;26.48;34.56
34658;BME280;20865;43.312;27.152;2023-04-25T08:15:01;99473.03;;;26.59;33.75
34658;BME280;20865;43.312;27.152;2023-04-25T08:17:28;99480.39;;;26.59;32.84
34658;BME280;20865;43.312;27.152;2023-04-25T08:19:55;99475.25;;;26.48;33.85
34658;BME280;20865;43.312;27.152;2023-04-25T08:22:22;99477.76;;;26.37;34.21
34658;BME280;20865;43.312;27.152;2023-04-25T08:24:49;99475.02;;;26.37;34.24
34658;BME280;20865;43.312;27.152;2023-04-25T08:27:17;99476.02;;;26.28;34.48
34658;BME280;20865;43.312;27.152;2023-04-25T08:29:44;99471.23;;;26.26;33.77
34658;BME280;20865;43.312;27.152;2023-04-25T08:32:11;99477.23;;;26.29;34.01
34658;BME280;20865;43.312;27.152;2023-04-25T08:34:38;99474.64;;;26.24;34.01
34658;BME280;20865;43.312;27.152;2023-04-25T08:37:06;99475.63;;;26.14;33.67
34658;BME280;20865;43.312;27.152;2023-04-25T08:39:33;99479.77;;;26.19;33.89
34658;BME280;20865;43.312;27.152;2023-04-25T08:42:00;99476.52;;;26.23;34.03
34658;BME280;20865;43.312;27.152;2023-04-25T08:44:29;99470.01;;;26.20;34.43
34658;BME280;20865;43.312;27.152;2023-04-25T08:46:57;99475.67;;;26.27;34.39
34658;BME280;20865;43.312;27.152;2023-04-25T08:49:24;99472.94;;;26.27;34.36
34658;BME280;20865;43.312;27.152;2023-04-25T08:51:51;99471.25;;;26.42;34.03
34658;BME280;20865;43.312;27.152;2023-04-25T08:54:19;99463.45;;;26.55;33.21
34658;BME280;20865;43.312;27.152;2023-04-25T08:56:48;99472.72;;;26.79;32.86
34658;BME280;20865;43.312;27.152;2023-04-25T08:59:15;99469.98;;;26.75;34.39
34658;BME280;20865;43.312;27.152;2023-04-25T09:01:43;99471.02;;;26.86;33.42
34658;BME280;20865;43.312;27.152;2023-04-25T09:04:11;99485.91;;;27.00;33.75
34658;BME280;20865;43.312;27.152;2023-04-25T09:06:38;99478.72;;;27.07;32.33
34658;BME280;20865;43.312;27.152;2023-04-25T09:09:06;99474.27;;;27.22;32.68
34658;BME280;20865;43.312;27.152;2023-04-25T09:11:33;99474.60;;;27.36;33.85
34658;BME280;20865;43.312;27.152;2023-04-25T09:19:33;99460.43;;;27.88;33.15
34658;BME280;20865;43.312;27.152;2023-04-25T09:22:01;99456.13;;;27.93;31.21
34658;BME280;20865;43.312;27.152;2023-04-25T09:24:32;99458.02;;;27.89;31.11
34658;BME280;20865;43.312;27.152;2023-04-25T09:26:57;99449.98;;;27.87;30.77
34658;BME280;20865;43.312;27.152;2023-04-25T09:29:31;99456.59;;;28.05;31.94
34658;BME280;20865;43.312;27.152;2023-04-25T09:32:10;99449.67;;;28.17;31.10
34658;BME280;20865;43.312;27.152;2023-04-25T09:34:39;99447.17;;;28.31;31.21
34658;BME280;20865;43.312;27.152;2023-04-25T09:37:07;99446.03;;;28.52;31.06
34658;BME280;20865;43.312;27.152;2023-04-25T09:39:33;99444.91;;;28.65;30.05
34658;BME280;20865;43.312;27.152;2023-04-25T09:42:00;99443.94;;;28.81;29.77
34658;BME280;20865;43.312;27.152;2023-04-25T09:44:29;99446.09;;;29.13;30.75
34658;BME280;20865;43.312;27.152;2023-04-25T09:46:57;99442.20;;;29.26;29.27
34658;BME280;20865;43.312;27.152;2023-04-25T09:49:24;99436.65;;;29.30;29.59
34658;BME280;20865;43.312;27.152;2023-04-25T09:51:56;99432.52;;;29.30;29.46
34658;BME280;20865;43.312;27.152;2023-04-25T09:54:26;99431.67;;;29.30;29.89
34658;BME280;20865;43.312;27.152;2023-04-25T09:56:53;99429.77;;;29.30;30.05
34658;BME280;20865;43.312;27.152;2023-04-25T09:59:21;99427.34;;;29.16;29.32
34658;BME280;20865;43.312;27.152;2023-04-25T10:01:49;99429.70;;;29.05;30.22
34658;BME280;20865;43.312;27.152;2023-04-25T10:04:20;99428.11;;;28.83;29.84
34658;BME280;20865;43.312;27.152;2023-04-25T10:06:48;99424.27;;;28.69;29.66
34658;BME280;20865;43.312;27.152;2023-04-25T10:09:18;99419.13;;;28.47;29.08
34658;BME280;20865;43.312;27.152;2023-04-25T10:11:46;99423.64;;;28.40;30.24
34658;BME280;20865;43.312;27.152;2023-04-25T10:14:16;99414.75;;;28.38;30.63
34658;BME280;20865;43.312;27.152;2023-04-25T10:16:43;99414.87;;;28.37;29.54
34658;BME280;20865;43.312;27.152;2023-04-25T10:19:11;99409.58;;;28.31;29.55
34658;BME280;20865;43.312;27.152;2023-04-25T10:22:04;99416.48;;;28.27;30.05
34658;BME280;20865;43.312;27.152;2023-04-25T10:24:09;99408.36;;;28.11;29.35
34658;BME280;20865;43.312;27.152;2023-04-25T10:26:36;99413.20;;;28.05;28.99
34658;BME280;20865;43.312;27.152;2023-04-25T10:29:03;99413.22;;;28.00;29.77
34658;BME280;20865;43.312;27.152;2023-04-25T10:31:30;99409.81;;;27.94;29.77
34658;BME280;20865;43.312;27.152;2023-04-25T10:33:59;99405.01;;;27.92;29.70
34658;BME280;20865;43.312;27.152;2023-04-25T10:36:27;99408.82;;;27.87;30.15
34658;BME280;20865;43.312;27.152;2023-04-25T10:38:56;99403.88;;;27.83;30.20
34658;BME280;20865;43.312;27.152;2023-04-25T10:41:23;99411.61;;;27.79;30.76
34658;BME280;20865;43.312;27.152;2023-04-25T10:43:58;99406.44;;;27.72;30.74
34658;BME280;20865;43.312;27.152;2023-04-25T10:46:21;99410.59;;;27.64;30.94
34658;BME280;20865;43.312;27.152;2023-04-25T10:48:48;99403.73;;;27.64;31.01
34658;BME280;20865;43.312;27.152;2023-04-25T10:51:25;99405.16;;;27.55;32.02
34658;BME280;20865;43.312;27.152;2023-04-25T10:56:29;99403.28;;;27.52;32.23
34658;BME280;20865;43.312;27.152;2023-04-25T10:58:52;99393.55;;;27.41;31.57
34658;BME280;20865;43.312;27.152;2023-04-25T11:01:21;99389.78;;;27.38;31.46
34658;BME280;20865;43.312;27.152;2023-04-25T11:03:48;99388.94;;;27.38;31.19
34658;BME280;20865;43.312;27.152;2023-04-25T11:08:57;99395.92;;;27.40;31.07
34658;BME280;20865;43.312;27.152;2023-04-25T11:11:25;99386.52;;;27.39;31.83
34658;BME280;20865;43.312;27.152;2023-04-25T11:13:52;99389.59;;;27.48;31.55
34658;BME280;20865;43.312;27.152;2023-04-25T11:16:19;99389.57;;;27.52;31.63
34658;BME280;20865;43.312;27.152;2023-04-25T11:18:46;99393.68;;;27.52;31.36
34658;BME280;20865;43.312;27.152;2023-04-25T11:21:13;99386.97;;;27.54;30.84
34658;BME280;20865;43.312;27.152;2023-04-25T11:23:40;99385.60;;;27.59;31.19
34658;BME280;20865;43.312;27.152;2023-04-25T11:26:07;99378.16;;;27.71;30.68
34658;BME280;20865;43.312;27.152;2023-04-25T11:28:33;99381.16;;;27.93;31.21
34658;BME280;20865;43.312;27.152;2023-04-25T11:31:02;99376.00;;;27.98;28.87
34658;BME280;20865;43.312;27.152;2023-04-25T11:33:29;99367.87;;;28.09;29.15
34658;BME280;20865;43.312;27.152;2023-04-25T11:35:56;99374.91;;;28.11;29.38
34658;BME280;20865;43.312;27.152;2023-04-25T11:38:23;99366.63;;;28.15;29.77
34658;BME280;20865;43.312;27.152;2023-04-25T11:40:51;99361.47;;;28.16;29.60
34658;BME280;20865;43.312;27.152;2023-04-25T11:43:22;99365.12;;;28.09;28.69
34658;BME280;20865;43.312;27.152;2023-04-25T11:45:49;99354.09;;;28.21;28.99
34658;BME280;20865;43.312;27.152;2023-04-25T11:48:20;99355.06;;;28.24;28.48
34658;BME280;20865;43.312;27.152;2023-04-25T11:50:47;99344.28;;;28.22;29.42
34658;BME280;20865;43.312;27.152;2023-04-25T11:53:14;99337.69;;;28.09;27.66
34658;BME280;20865;43.312;27.152;2023-04-25T11:55:41;99331.44;;;28.19;28.72
34658;BME280;20865;43.312;27.152;2023-04-25T11:58:07;99332.13;;;28.21;28.58
34658;BME280;20865;43.312;27.152;2023-04-25T12:00:34;99333.10;;;28.24;28.75
34658;BME280;20865;43.312;27.152;2023-04-25T12:03:01;99330.20;;;28.25;29.29
34658;BME280;20865;43.312;27.152;2023-04-25T12:05:30;99324.47;;;28.31;28.45
34658;BME280;20865;43.312;27.152;2023-04-25T12:08:09;99319.68;;;28.56;28.61
34658;BME280;20865;43.312;27.152;2023-04-25T12:10:27;99316.95;;;28.71;29.38
34658;BME280;20865;43.312;27.152;2023-04-25T12:12:53;99314.00;;;28.39;27.90
34658;BME280;20865;43.312;27.152;2023-04-25T12:15:24;99308.61;;;28.64;28.36
34658;BME280;20865;43.312;27.152;2023-04-25T12:17:52;99311.88;;;28.64;28.40
34658;BME280;20865;43.312;27.152;2023-04-25T12:20:21;99309.59;;;28.53;28.62
34658;BME280;20865;43.312;27.152;2023-04-25T12:22:50;99315.97;;;28.49;30.12
34658;BME280;20865;43.312;27.152;2023-04-25T12:28:12;99306.41;;;28.14;30.72
34658;BME280;20865;43.312;27.152;2023-04-25T12:30:55;99312.92;;;27.54;30.76
34658;BME280;20865;43.312;27.152;2023-04-25T12:33:23;99312.90;;;27.19;30.37
34658;BME280;20865;43.312;27.152;2023-04-25T12:35:50;99313.44;;;27.06;30.99
34658;BME280;20865;43.312;27.152;2023-04-25T12:38:20;99310.39;;;26.93;31.22
34658;BME280;20865;43.312;27.152;2023-04-25T12:40:47;99300.31;;;26.86;32.21
34658;BME280;20865;43.312;27.152;2023-04-25T12:43:14;99296.22;;;26.81;31.50
34658;BME280;20865;43.312;27.152;2023-04-25T12:45:41;99294.69;;;26.75;31.57
34658;BME280;20865;43.312;27.152;2023-04-25T12:48:08;99293.80;;;26.74;31.32
34658;BME280;20865;43.312;27.152;2023-04-25T12:50:36;99289.38;;;26.81;31.65
34658;BME280;20865;43.312;27.152;2023-04-25T12:53:02;99297.94;;;26.78;31.65
34658;BME280;20865;43.312;27.152;2023-04-25T12:55:29;99300.52;;;26.72;32.52
34658;BME280;20865;43.312;27.152;2023-04-25T12:57:56;99304.47;;;26.61;31.92
34658;BME280;20865;43.312;27.152;2023-04-25T13:00:23;99314.20;;;26.59;32.02
34658;BME280;20865;43.312;27.152;2023-04-25T13:02:50;99331.86;;;26.57;32.62
34658;BME280;20865;43.312;27.152;2023-04-25T13:05:17;99394.14;;;26.55;33.05